createdAt,value
2022-10-11T00:04:40.741Z,44.23
2022-10-11T00:10:02.448Z,43.79
2022-10-11T00:15:24.566Z,43.81
2022-10-11T00:20:46.185Z,43.83
2022-10-11T00:26:09.922Z,43.74
2022-10-11T00:31:35.505Z,43.71
2022-10-11T00:36:57.642Z,44.14
2022-10-11T00:42:19.321Z,43.85
2022-10-11T00:47:41.553Z,43.84
2022-10-11T00:53:11.565Z,43.67
2022-10-11T00:58:35.172Z,43.75
2022-10-11T01:03:57.615Z,44.09
2022-10-11T01:09:21.303Z,44.02
2022-10-11T01:14:53.658Z,43.75
2022-10-11T01:20:30.996Z,43.78
2022-10-11T01:26:31.596Z,43.50
2022-10-11T01:32:13.293Z,43.79
2022-10-11T01:37:40.032Z,43.56
2022-10-11T01:43:03.672Z,43.94
2022-10-11T01:48:25.773Z,43.97
2022-10-11T01:53:53.153Z,43.80
2022-10-11T01:59:29.737Z,43.68
2022-10-11T02:05:18.331Z,43.44
2022-10-11T02:10:46.445Z,43.62
2022-10-11T02:16:12.952Z,43.73
2022-10-11T02:21:39.708Z,43.73
2022-10-11T02:27:04.402Z,43.55
2022-10-11T02:32:27.595Z,43.54
2022-10-11T02:38:19.313Z,43.37
2022-10-11T02:43:50.747Z,43.70
2022-10-11T02:49:14.422Z,43.35
2022-10-11T02:54:36.349Z,43.58
2022-10-11T02:59:57.984Z,43.29
2022-10-11T03:05:19.824Z,43.48
2022-10-11T03:10:42.279Z,43.57
2022-10-11T03:16:04.103Z,43.38
2022-10-11T03:21:25.767Z,43.29
2022-10-11T03:26:47.481Z,43.25
2022-10-11T03:32:09.106Z,43.39
2022-10-11T03:37:30.760Z,43.66
2022-10-11T03:42:52.410Z,43.26
2022-10-11T03:48:14.147Z,43.35
2022-10-11T03:53:35.818Z,43.54
2022-10-11T03:58:57.544Z,43.28
2022-10-11T04:04:19.189Z,43.11
2022-10-11T04:09:40.897Z,43.50
2022-10-11T04:15:02.585Z,43.47
2022-10-11T04:20:24.308Z,43.13
2022-10-11T04:25:47.092Z,43.07
2022-10-11T04:31:09.018Z,43.42
2022-10-11T04:36:33.138Z,43.29
2022-10-11T04:41:54.830Z,43.18
2022-10-11T04:47:16.612Z,43.07
2022-10-11T04:52:38.291Z,43.25
2022-10-11T04:58:00.188Z,43.10
2022-10-11T05:03:21.941Z,43.34
2022-10-11T05:08:43.547Z,43.39
2022-10-11T05:14:05.286Z,42.94
2022-10-11T05:19:27.079Z,43.07
2022-10-11T05:24:48.767Z,43.34
2022-10-11T05:30:11.022Z,43.03
2022-10-11T05:35:32.678Z,43.01
2022-10-11T05:40:54.847Z,43.40
2022-10-11T05:46:16.794Z,43.37
2022-10-11T05:51:38.522Z,43.30
2022-10-11T05:57:00.249Z,43.14
2022-10-11T06:02:21.935Z,42.95
2022-10-11T06:07:43.611Z,43.42
2022-10-11T06:13:06.499Z,43.00
2022-10-11T06:18:28.181Z,43.02
2022-10-11T06:23:51.068Z,43.11
2022-10-11T06:29:12.722Z,43.24
2022-10-11T06:34:34.456Z,42.82
2022-10-11T06:39:56.101Z,42.78
2022-10-11T06:45:17.783Z,43.03
2022-10-11T06:50:58.499Z,42.85
2022-10-11T06:56:20.638Z,42.82
2022-10-11T07:01:42.987Z,42.80
2022-10-11T07:07:04.665Z,42.49
2022-10-11T07:12:26.405Z,42.34
2022-10-11T07:17:48.048Z,42.11
2022-10-11T07:23:09.689Z,40.99
2022-10-11T07:28:31.752Z,39.93
2022-10-11T07:33:53.698Z,39.58
2022-10-11T07:39:15.354Z,39.17
2022-10-11T07:44:37.012Z,38.65
2022-10-11T07:49:58.722Z,37.38
2022-10-11T07:55:20.375Z,36.55
2022-10-11T08:00:43.236Z,35.46
2022-10-11T08:06:07.770Z,34.78
2022-10-11T08:11:33.300Z,34.55
2022-10-11T08:16:54.854Z,35.30
2022-10-11T08:22:16.638Z,36.35
2022-10-11T08:27:38.285Z,37.23
2022-10-11T08:33:02.994Z,37.59
2022-10-11T08:38:26.668Z,38.26
2022-10-11T08:44:05.023Z,39.44
2022-10-11T08:49:31.638Z,39.76
2022-10-11T08:55:08.257Z,40.28
2022-10-11T09:00:33.210Z,40.11
2022-10-11T09:06:18.302Z,40.86
2022-10-11T09:12:02.966Z,40.57
2022-10-11T09:17:45.706Z,41.08
2022-10-11T09:23:17.805Z,41.11
2022-10-11T09:29:01.233Z,41.18
2022-10-11T09:34:32.577Z,41.51
2022-10-11T09:40:00.360Z,41.94
2022-10-11T09:45:22.274Z,41.80
2022-10-11T09:50:44.528Z,41.69
2022-10-11T09:56:06.862Z,42.16
2022-10-11T10:01:30.066Z,42.11
2022-10-11T10:07:10.777Z,41.95
2022-10-11T10:12:32.497Z,42.32
2022-10-11T10:17:54.295Z,42.35
2022-10-11T10:23:25.058Z,42.40
2022-10-11T10:29:05.010Z,42.14
2022-10-11T10:34:38.083Z,42.53
2022-10-11T10:40:09.172Z,42.23
2022-10-11T10:46:16.807Z,42.68
2022-10-11T10:51:53.333Z,42.70
2022-10-11T10:57:29.198Z,42.34
2022-10-11T11:02:58.853Z,42.38
2022-10-11T11:08:55.038Z,42.80
2022-10-11T11:14:22.333Z,42.76
2022-10-11T11:19:58.285Z,42.82
2022-10-11T11:25:25.775Z,42.62
2022-10-11T11:31:12.357Z,42.37
2022-10-11T11:36:44.363Z,42.74
2022-10-11T11:42:13.587Z,42.74
2022-10-11T11:47:43.864Z,42.60
2022-10-11T11:53:13.675Z,42.64
2022-10-11T11:58:52.493Z,42.86
2022-10-11T12:04:28.863Z,42.37
2022-10-11T12:09:54.662Z,42.78
2022-10-11T12:15:23.608Z,42.49
2022-10-11T12:20:45.369Z,42.36
2022-10-11T12:26:16.094Z,42.39
2022-10-11T12:31:41.308Z,42.82
2022-10-11T12:37:17.656Z,42.57
2022-10-11T12:42:39.472Z,42.56
2022-10-11T12:48:38.411Z,42.51
2022-10-11T12:54:27.566Z,42.64
2022-10-11T12:59:51.620Z,42.54
2022-10-11T13:05:22.308Z,42.52
2022-10-11T13:10:46.254Z,42.22
2022-10-11T13:16:20.655Z,42.16
2022-10-11T13:21:43.722Z,42.55
2022-10-11T13:27:07.209Z,42.52
2022-10-11T13:32:31.187Z,42.39
2022-10-11T13:37:52.928Z,42.16
2022-10-11T13:43:15.819Z,42.28
2022-10-11T13:48:41.423Z,42.23
2022-10-11T13:54:04.966Z,42.51
2022-10-11T13:59:28.344Z,42.11
2022-10-11T14:04:50.510Z,42.31
2022-10-11T14:10:20.984Z,42.57
2022-10-11T14:15:42.656Z,42.35
2022-10-11T14:21:19.461Z,42.56
2022-10-11T14:26:50.665Z,42.46
2022-10-11T14:32:18.926Z,42.53
2022-10-11T14:37:40.621Z,42.49
2022-10-11T14:43:02.296Z,42.45
2022-10-11T14:48:50.150Z,42.18
2022-10-11T14:54:05.867Z,42.46
2022-10-11T14:59:32.776Z,42.46
2022-10-11T15:04:54.466Z,42.26
2022-10-11T15:10:29.188Z,42.25
2022-10-11T15:15:50.901Z,42.08
2022-10-11T15:21:15.350Z,42.42
2022-10-11T15:26:37.026Z,42.19
2022-10-11T15:31:58.742Z,41.96
2022-10-11T15:37:20.431Z,42.02
2022-10-11T15:42:42.448Z,42.10
2022-10-11T15:48:04.399Z,42.42
2022-10-11T15:53:30.191Z,42.39
2022-10-11T15:58:51.859Z,42.38
2022-10-11T16:04:13.551Z,42.06
2022-10-11T16:09:35.253Z,42.30
2022-10-11T16:14:57.215Z,41.77
2022-10-11T16:20:22.534Z,42.17
2022-10-11T16:25:44.266Z,42.07
2022-10-11T16:31:18.452Z,41.78
2022-10-11T16:36:43.552Z,41.68
2022-10-11T16:42:05.816Z,41.45
2022-10-11T16:47:27.658Z,41.82
2022-10-11T16:52:49.297Z,41.86
2022-10-11T16:58:11.236Z,41.60
2022-10-11T17:03:32.881Z,41.75
2022-10-11T17:08:55.186Z,41.67
2022-10-11T17:14:18.050Z,41.80
2022-10-11T17:19:45.053Z,41.88
2022-10-11T17:25:07.444Z,42.23
2022-10-11T17:30:29.103Z,42.13
2022-10-11T17:35:50.763Z,41.92
2022-10-11T17:41:12.799Z,42.35
2022-10-11T17:46:34.753Z,41.97
2022-10-11T17:51:56.817Z,42.00
2022-10-11T17:57:18.512Z,42.58
2022-10-11T18:02:40.482Z,42.19
2022-10-11T18:08:02.123Z,42.52
2022-10-11T18:13:23.871Z,41.92
2022-10-11T18:18:46.065Z,41.68
2022-10-11T18:24:12.782Z,40.98
2022-10-11T18:29:34.457Z,40.95
2022-10-11T18:34:58.019Z,40.71
2022-10-11T18:40:19.679Z,40.97
2022-10-11T18:45:41.416Z,41.03
2022-10-11T18:51:09.334Z,41.36
2022-10-11T18:56:32.674Z,41.39
2022-10-11T19:01:54.320Z,41.88
2022-10-11T19:07:15.958Z,41.74
2022-10-11T19:12:37.665Z,41.72
2022-10-11T19:17:59.409Z,41.98
2022-10-11T19:23:22.410Z,42.14
2022-10-11T19:28:45.239Z,42.03
2022-10-11T19:34:06.949Z,42.55
2022-10-11T19:39:29.678Z,42.77
2022-10-11T19:44:51.341Z,43.09
2022-10-11T19:50:13.039Z,43.03
2022-10-11T19:55:35.547Z,42.91
2022-10-11T20:01:07.533Z,42.79
2022-10-11T20:06:34.567Z,42.82
2022-10-11T20:11:59.168Z,42.75
2022-10-11T20:17:20.803Z,42.67
2022-10-11T20:22:42.555Z,42.60
2022-10-11T20:28:04.512Z,42.59
2022-10-11T20:33:26.967Z,42.76
2022-10-11T20:38:50.107Z,42.50
2022-10-11T20:44:13.325Z,42.68
2022-10-11T20:49:35.048Z,43.03
2022-10-11T20:54:56.693Z,42.80
2022-10-11T21:00:18.614Z,42.59
2022-10-11T21:05:40.574Z,42.56
2022-10-11T21:11:02.686Z,42.51
2022-10-11T21:16:24.860Z,42.96
2022-10-11T21:21:52.496Z,42.96
2022-10-11T21:27:15.094Z,42.74
2022-10-11T21:32:37.350Z,42.83
2022-10-11T21:37:59.708Z,42.75
2022-10-11T21:43:21.383Z,42.96
2022-10-11T21:48:43.321Z,42.95
2022-10-11T21:54:05.443Z,42.92
2022-10-11T21:59:27.108Z,42.81
2022-10-11T22:04:48.820Z,42.78
2022-10-11T22:10:10.573Z,42.54
2022-10-11T22:15:36.093Z,42.50
2022-10-11T22:21:14.472Z,42.92
2022-10-11T22:26:36.196Z,42.66
2022-10-11T22:31:57.827Z,42.93
2022-10-11T22:37:19.462Z,42.41
2022-10-11T22:42:41.097Z,42.38
2022-10-11T22:48:03.099Z,42.36
2022-10-11T22:53:24.773Z,42.33
2022-10-11T22:58:46.551Z,42.57
2022-10-11T23:04:08.287Z,42.58
2022-10-11T23:09:31.698Z,42.50
2022-10-11T23:14:53.382Z,42.71
2022-10-11T23:20:15.116Z,42.56
2022-10-11T23:25:36.792Z,42.61
2022-10-11T23:30:58.604Z,42.17
2022-10-11T23:36:24.666Z,42.65
2022-10-11T23:41:46.305Z,42.65
2022-10-11T23:47:08.002Z,42.39
2022-10-11T23:52:29.666Z,42.59
2022-10-11T23:57:51.365Z,42.32
